Alexander, NC

9:31 AM EST on December 22, 2014 (GMT -0500)
Lone Pine Road | Change Station
CLOSE
Current Station
Personal Weather Station
Location: Alexander, NC
Elevation: 2126 ft
Nearby Weather Stations

Elev 2126 ft 35.74 °N, 82.64 °W | Updated 11 minutes ago

Overcast
Overcast
40.8 °F
Feels Like 41 °F
N
2.7
Wind Variable Wind from East

Today
High -- | Low -- °F
--% Chance of Precip.
Yesterday
High -- | Low -- °F
Precip. -- in
7:37 AM 5:21 PM
New Moon, 0% visible
Pressure 30.09 in
Visibility 2.0 miles
Clouds Overcast 600 ft
Windchill 41 °F
Dew Point 40 °F
Humidity 95%
Rainfall 0.00 in
Snow Depth Not available.
UV 0 out of 12
Pollen .30 out of 12
Air Quality Not available.
Flu Activity Not available.
METAR KAVL 221354Z 16004KT 2SM -RA BR OVC006 04/03 A3008 RMK AO2 RAB42 SLP189 P0000 T00390033

More Conditions Fewer Conditions

Pressure 30.09 in
Visibility 2.0 miles
Clouds Overcast 600 ft
Windchill 41 °F
Dew Point 40 °F
Humidity 95%
Rainfall 0.00 in
Snow Depth Not available.
UV 0 out of 12
Pollen .30 out of 12
Air Quality Not available.
Flu Activity Not available.
METAR KAVL 221354Z 16004KT 2SM -RA BR OVC006 04/03 A3008 RMK AO2 RAB42 SLP189 P0000 T00390033

More Conditions Fewer Conditions

10-Day Weather Forecast

Almanac

Astronomy

Dec. 22, 2014 Rise Set
Actual Time
Civil Twilight
Nautical Twilight
Astronomical Twilight
Moon
Length of Visible Light
Length of Day
Tomorrow will be .
, % of the Moon is Illuminated

Today's Extremes

State Highs State Lows

Community

WunderPhotos

Upload Photos

1,779,608 photos uploaded!

WunderBlogs® & News

Nearby

Air Quality

  Air Quality AQ Index Pollutant
Not available.

Snow Depth

Station Depth Elevation

Earthquake Activity

City Distance Mag. Time & Date
Minimum magnitude displayed is 2.5.

Coastal Water Temperatures

Place Temperature

Nearby Weather Stations